Nearby METAR Reports

 

KTAN - Taunton, Massachusetts, USA
Distance from station: W 5mi, 8km
Updated: Fri, 23-Feb-2024 1:52am EST
Overcast
Overcast
 Wind from S
Wind: S 5 mph , 7 km/h
Temperature: 39°F , 4°C
Wind Chill: 35°F , 2°C
Dew Point: 36°F , 2°C
Humidity: 87%
Barometer: 29.70 inHg , 1005.8 hPa
Clouds: Overcast
Visibility: 10 miles , 16 km
Cloud details: Overcast 4700 ft
2024/02/23 06:52 KTAN 230652Z AUTO 19004KT 10SM OVC047 04/02 A2970 RMK AO2 SLP057 T00390017
KPYM - Plymouth, Massachusetts, USA
Distance from station: ENE 10mi, 16km
Updated: Fri, 23-Feb-2024 1:52am EST
Overcast
Overcast
 Wind from S
Wind: S 3 mph , 6 km/h
Temperature: 37°F , 3°C
Dew Point: 36°F , 2°C
Humidity: 93%
Barometer: 29.68 inHg , 1005.1 hPa
Clouds: Overcast
Visibility: 10 miles , 16 km
Cloud details: Few Clouds 600 ft
Overcast 4200 ft
2024/02/23 06:52 KPYM 230652Z AUTO 19003KT 10SM FEW006 OVC042 03/02 A2968 RMK AO2 UPB25E37 SLP054 P0000 T00280017
 
KEWB - New Bedford, Massachusetts, USA
Distance from station: S 14mi, 23km
Updated: Fri, 23-Feb-2024 2:30am EST
Light rain, Overcast
Light rain, Overcast
 Wind from S
Wind: S 7 mph , 11 km/h
Temperature: 39°F , 4°C
Wind Chill: 34°F , 1°C
Dew Point: 36°F , 2°C
Humidity: 87%
Barometer: 29.70 inHg , 1005.8 hPa
Summary: Light rain
Clouds: Overcast
Visibility: 10 miles , 16 km
Cloud details: Few Clouds 900 ft
Mostly cloudy 4000 ft
Overcast 5000 ft
2024/02/23 07:30 KEWB 230730Z AUTO 18006KT 10SM -RA FEW009 BKN040 OVC050 04/02 A2970 RMK AO2 P0000 T00390022
KGHG - Marshfield, Massachusetts, USA
Distance from station: NE 20mi, 31km
Updated: Fri, 23-Feb-2024 2:35am EST
Overcast
Overcast
 Wind from SSW
Wind: SSW 9 mph , 15 km/h, Gust: 16 mph , 26 km/h
Temperature: 37°F , 3°C
Wind Chill: 30°F , -1°C
Dew Point: 36°F , 2°C
Humidity: 93%
Barometer: 29.69 inHg , 1005.4 hPa
Clouds: Overcast
Visibility: 10 miles , 16 km
Cloud details: Few Clouds 1100 ft
Mostly cloudy 4300 ft
Overcast 5000 ft
2024/02/23 07:35 KGHG 230735Z AUTO 21008G14KT 10SM FEW011 BKN043 OVC050 03/02 A2969 RMK AO2
 
KOWD - Norwood, Massachusetts, USA
Distance from station: NNW 24mi, 39km
Updated: Fri, 23-Feb-2024 1:53am EST
Overcast
Overcast
 Wind from S
Wind: S 5 mph , 7 km/h
Temperature: 37°F , 3°C
Wind Chill: 33°F , 1°C
Dew Point: 34°F , 1°C
Humidity: 87%
Barometer: 29.69 inHg , 1005.4 hPa
Clouds: Overcast
Visibility: 10 miles , 16 km
Cloud details: Overcast 900 ft
2024/02/23 06:53 KOWD 230653Z AUTO 19004KT 10SM OVC009 03/01 A2969 RMK AO2 SLP054 T00330011
KMQE - East Milton, Massachusetts, USA
Distance from station: NNW 25mi, 40km
Updated: Thu, 01-Jul-2021 9:51am EDT
NOT Current

 Wind from WNW
Wind: WNW 9 mph , 15 km/h
Temperature: 75°F , 24°C
Dew Point: 70°F , 21°C
Humidity: 83%
Barometer: 29.86 inHg , 1011.2 hPa
2021/07/01 13:51 KMQE 011351Z AUTO 30008KT 24/21 A2986 RMK AO1 SLP116 T02440206
 
KFMH - Falmouth/Otis Ab, Massachusetts, USA
Distance from station: SE 27mi, 44km
Updated: Fri, 23-Feb-2024 2:45am EST
Mostly cloudy
Mostly cloudy
 Wind from SW
Wind: SW 12 mph , 19 km/h
Temperature: 36°F , 2°C
Wind Chill: 28°F , -2°C
Dew Point: 36°F , 2°C
Humidity: 100%
Barometer: 29.71 inHg , 1006.1 hPa
Clouds: Mostly cloudy
Visibility: 10 miles , 16 km
Cloud details: Mostly cloudy 500 ft
2024/02/23 07:45 KFMH 230745Z 23010KT 10SM BKN005 02/02 A2971
KPVD - Providence/Green, Rhode Island, USA
Distance from station: WSW 29mi, 47km
Updated: Fri, 23-Feb-2024 2:51am EST
Light rain, Overcast
Light rain, Overcast
 Wind from S
Wind: S 6 mph , 9 km/h
Temperature: 37°F , 3°C
Wind Chill: 32°F , 0°C
Dew Point: 37°F , 3°C
Humidity: 100%
Barometer: 29.68 inHg , 1005.1 hPa
Summary: Light rain
Clouds: Overcast
Visibility: 8 miles , 13 km
Cloud details: Partly cloudy 800 ft
Mostly cloudy 3000 ft
Overcast 5500 ft
2024/02/23 07:51 KPVD 230751Z AUTO 19005KT 8SM -RA SCT008 BKN030 OVC055 03/03 A2968 RMK AO2 SLP049 P0002 T0028
 
KSFZ - Pawtucket, Rhode Island, USA
Distance from station: W 30mi, 48km
Updated: Fri, 23-Feb-2024 1:56am EST
Light rain, Overcast
Light rain, Overcast
 Wind from SSW
Wind: SSW 3 mph , 6 km/h
Temperature: 36°F , 2°C
Dew Point: 36°F , 2°C
Humidity: 100%
Barometer: 29.69 inHg , 1005.4 hPa
Summary: Light rain
Clouds: Overcast
Visibility: 8 miles , 13 km
Cloud details: Overcast 500 ft
2024/02/23 06:56 KSFZ 230656Z AUTO 20003KT 8SM -RA OVC005 02/02 A2969 RMK AO2 RAB31 SLP056 P0000 T00170017 FZRANO $
KUUU - Newport, Rhode Island, USA
Distance from station: SW 31mi, 50km
Updated: Fri, 23-Feb-2024 1:53am EST
Light rain, Overcast
Light rain, Overcast
 Wind from S
Wind: S 12 mph , 19 km/h
Temperature: 37°F , 3°C
Wind Chill: 29°F , -2°C
Dew Point: 36°F , 2°C
Humidity: 93%
Barometer: 29.70 inHg , 1005.8 hPa
Summary: Light rain
Clouds: Overcast
Visibility: 10 miles , 16 km
Cloud details: Few Clouds 4200 ft
Overcast 4900 ft
2024/02/23 06:53 KUUU 230653Z AUTO 19010KT 10SM -RA FEW042 OVC049 03/02 A2970 RMK AO2 RAB22 SLP058 P0000 T00330022
 
KOQU - N. Kingston/Quon, Rhode Island, USA
Distance from station: SW 32mi, 52km
Updated: Thu, 22-Feb-2024 10:50pm EST
NOT Current
Overcast
Overcast
 Wind from SW
Wind: SW 8 mph , 13 km/h
Temperature: 37°F , 3°C
Wind Chill: 31°F , -1°C
Dew Point: 28°F , -2°C
Humidity: 70%
Barometer: 29.80 inHg , 1009.1 hPa
Clouds: Overcast
Visibility: 10 miles , 16 km
Cloud details: Overcast 1500 ft
2024/02/23 03:50 KOQU 230350Z 23007KT 10SM OVC015 03/M02 A2980 RMK LAST
KBOS - Boston, Massachusetts, USA
Distance from station: N 33mi, 54km
Updated: Fri, 23-Feb-2024 1:54am EST
Overcast
Overcast
 Wind from SSW
Wind: SSW 9 mph , 15 km/h
Temperature: 37°F , 3°C
Wind Chill: 30°F , -1°C
Dew Point: 32°F , 0°C
Humidity: 81%
Barometer: 29.69 inHg , 1005.4 hPa
Clouds: Overcast
Visibility: 10 miles , 16 km
Cloud details: Partly cloudy 1100 ft
Overcast 3200 ft
2024/02/23 06:54 KBOS 230654Z 21008KT 10SM SCT011 OVC032 03/00 A2969 RMK AO2 SLP052 T00280000 $
 
KHYA - Hyannis, Massachusetts, USA
Distance from station: ESE 37mi, 59km
Updated: Fri, 23-Feb-2024 2:31am EST
Overcast
Overcast
 Wind from SSW
Wind: SSW 9 mph , 15 km/h
Temperature: 37°F , 3°C
Wind Chill: 30°F , -1°C
Dew Point: 34°F , 1°C
Humidity: 87%
Barometer: 29.70 inHg , 1005.8 hPa
Clouds: Overcast
Visibility: 10 miles , 16 km
Cloud details: Few Clouds 600 ft
Mostly cloudy 5000 ft
Overcast 7000 ft
2024/02/23 07:31 KHYA 230731Z AUTO 20008KT 10SM FEW006 BKN050 OVC070 03/01 A2970 RMK AO2 RAE11UPB11E16 P0000 T00280011
KMVY - Marthas Vineyard, Massachusetts, USA
Distance from station: SSE 37mi, 60km
Updated: Fri, 23-Feb-2024 1:53am EST
Light rain, Overcast
Light rain, Overcast
 Wind from S
Wind: S 9 mph , 15 km/h
Temperature: 37°F , 3°C
Wind Chill: 30°F , -1°C
Dew Point: 37°F , 3°C
Humidity: 100%
Barometer: 29.73 inHg , 1006.8 hPa
Summary: Light rain
Clouds: Overcast
Visibility: 10 miles , 16 km
Cloud details: Overcast 5000 ft
2024/02/23 06:53 KMVY 230653Z AUTO 18008KT 10SM -RA OVC050 03/03 A2973 RMK AO2 RAE00B30 SLP066 P0000 T00330028
 
KPVC - Provincetown, Massachusetts, USA
Distance from station: ENE 38mi, 61km
Updated: Fri, 23-Feb-2024 1:56am EST
Overcast
Overcast
 Wind from S
Wind: S 12 mph , 19 km/h, Gust: 17 mph , 28 km/h
Temperature: 37°F , 3°C
Wind Chill: 29°F , -2°C
Dew Point: 37°F , 3°C
Humidity: 100%
Barometer: 29.71 inHg , 1006.1 hPa
Clouds: Overcast
Visibility: 10 miles , 16 km
Cloud details: Overcast 4200 ft
2024/02/23 06:56 KPVC 230656Z AUTO 19010G15KT 10SM OVC042 03/03 A2971 RMK AO2 RAE24 SLP060 P0001 T00280028
KBED - Bedford, Massachusetts, USA
Distance from station: NNW 44mi, 72km
Updated: Fri, 23-Feb-2024 2:51am EST
Light rain, Mist, Overcast
Light rain, Mist, Overcast
 Wind from S
Wind: S 3 mph , 6 km/h
Temperature: 36°F , 2°C
Dew Point: 34°F , 1°C
Humidity: 93%
Barometer: 29.65 inHg , 1004.1 hPa
Summary: Light rain, Mist
Clouds: Overcast
Visibility: 6 miles , 10 km
Cloud details: Mostly cloudy 1100 ft
Overcast 2600 ft
2024/02/23 07:51 KBED 230751Z AUTO 18003KT 6SM -RA BR BKN011 OVC026 02/01 A2965 RMK AO2 SLP054 P0003 T00170006
 
KBVY - Beverly, Massachusetts, USA
Distance from station: 0 48mi, 77km
Updated: Fri, 23-Feb-2024 1:53am EST
Overcast
Overcast
 Wind from S
Wind: S 3 mph , 6 km/h
Temperature: 36°F , 2°C
Dew Point: 32°F , 0°C
Humidity: 87%
Barometer: 29.68 inHg , 1005.1 hPa
Clouds: Overcast
Visibility: 10 miles , 16 km
Cloud details: Few Clouds 1500 ft
Overcast 2700 ft
2024/02/23 06:53 KBVY 230653Z AUTO 19003KT 10SM FEW015 OVC027 02/00 A2968 RMK AO2 SLP047 T00170000
KCQX - Chatham, Massachusetts, USA
Distance from station: ESE 49mi, 80km
Updated: Fri, 23-Feb-2024 1:52am EST
Overcast
Overcast
 Wind from S
Wind: S 8 mph , 13 km/h
Temperature: 37°F , 3°C
Wind Chill: 31°F , -1°C
Dew Point: 36°F , 2°C
Humidity: 93%
Barometer: 29.73 inHg , 1006.8 hPa
Clouds: Overcast
Visibility: 10 miles , 16 km
Cloud details: Overcast 5000 ft
2024/02/23 06:52 KCQX 230652Z AUTO 18007KT 10SM OVC050 03/02 A2973 RMK AO2 RAB00E38 SLP068 P0001 T00330022